Time;durP1;ratioP1;P1;durP2;ratioP2;P2;SDS_P1;SDS_P2;PMS_P1;PMS_P2;Temp;Humidity;BMP_temperature;BMP_pressure;BME280_temperature;BME280_humidity;BME280_pressure;Samples;Min_cycle;Max_cycle;Signal;HPM_P1;HPM_P2
2023/05/13 00:02:16;;;;;;;30.30;20.20;;;;;;;6.67;64.96;97579.11;108561;1250;102011;-76
2023/05/13 00:04:44;;;;;;;26.60;19.20;;;;;;;6.70;65.14;97578.06;108882;1250;99821;-74
2023/05/13 00:07:12;;;;;;;27.30;20.10;;;;;;;6.71;65.17;97577.41;108890;1250;95607;-76
2023/05/13 00:09:40;;;;;;;27.10;20.00;;;;;;;6.72;65.16;97579.05;108911;1251;95991;-73
2023/05/13 00:12:08;;;;;;;32.50;22.30;;;;;;;6.74;65.28;97579.61;108926;1250;102631;-74
2023/05/13 00:14:37;;;;;;;30.80;23.00;;;;;;;6.78;65.47;97573.21;108922;1250;99898;-76
2023/05/13 00:17:05;;;;;;;36.40;21.40;;;;;;;6.81;65.75;97567.98;108840;1250;100151;-76
2023/05/13 00:19:33;;;;;;;27.90;18.90;;;;;;;6.77;65.77;97570.77;108625;1250;95922;-73
2023/05/13 00:22:01;;;;;;;27.60;17.30;;;;;;;6.73;65.74;97574.61;108604;1250;96658;-74
2023/05/13 00:24:29;;;;;;;24.80;17.50;;;;;;;6.72;65.84;97574.45;108932;1250;103831;-78
2023/05/13 00:26:57;;;;;;;25.40;19.00;;;;;;;6.73;65.91;97571.09;108906;1250;101359;-74
2023/05/13 00:29:25;;;;;;;26.20;18.60;;;;;;;6.76;66.03;97570.00;108529;1250;99767;-73
2023/05/13 00:31:53;;;;;;;29.80;21.20;;;;;;;6.76;66.12;97571.99;108875;1250;95660;-75
2023/05/13 00:34:21;;;;;;;31.90;19.90;;;;;;;6.76;66.22;97579.34;108862;1251;96118;-74
2023/05/13 00:36:49;;;;;;;26.50;17.90;;;;;;;6.77;66.26;97576.80;108573;1250;102655;-74
2023/05/13 00:39:17;;;;;;;21.60;15.50;;;;;;;6.81;66.27;97573.85;108553;1250;100665;-77
2023/05/13 00:41:45;;;;;;;23.40;17.50;;;;;;;6.83;66.26;97575.55;108887;1250;100325;-74
2023/05/13 00:44:13;;;;;;;24.00;16.90;;;;;;;6.84;66.32;97575.64;108845;1251;95564;-76
2023/05/13 00:46:42;;;;;;;26.00;17.30;;;;;;;6.85;66.47;97575.83;108896;1250;96054;-77
2023/05/13 00:49:10;;;;;;;24.90;18.10;;;;;;;6.87;66.66;97577.63;108903;1250;103734;-78
2023/05/13 00:51:39;;;;;;;27.50;18.90;;;;;;;6.87;66.73;97577.95;108880;1250;101474;-73
2023/05/13 00:54:07;;;;;;;25.30;18.20;;;;;;;6.88;66.82;97580.64;108856;1250;100166;-73
2023/05/13 00:56:38;;;;;;;22.10;15.50;;;;;;;6.89;66.91;97580.64;108623;1250;95908;-74
2023/05/13 00:59:06;;;;;;;20.90;14.60;;;;;;;6.91;66.97;97586.13;108928;1250;95760;-75
2023/05/13 01:01:40;;;;;;;25.60;13.40;;;;;;;6.93;66.95;97586.23;108893;1254;103331;-73
2023/05/13 01:04:27;;;;;;;21.10;13.90;;;;;;;6.96;66.96;97588.94;108912;1250;101277;-74
2023/05/13 01:07:14;;;;;;;20.90;14.70;;;;;;;6.97;67.04;97591.14;108560;1250;100077;-75
2023/05/13 01:09:54;;;;;;;21.50;14.20;;;;;;;6.97;67.22;97589.66;108876;1251;95624;-77
2023/05/13 01:12:29;;;;;;;19.90;15.00;;;;;;;6.96;67.19;97593.89;108923;1250;96028;-74
2023/05/13 01:15:21;;;;;;;22.50;15.70;;;;;;;6.98;67.42;97593.72;108852;1250;103491;-76
2023/05/13 01:18:12;;;;;;;20.00;14.60;;;;;;;6.99;67.61;97594.67;108913;1250;101374;-74
2023/05/13 01:20:42;;;;;;;17.40;12.90;;;;;;;6.97;67.64;97597.74;108805;1255;100294;-78
2023/05/13 01:23:13;;;;;;;19.20;12.40;;;;;;;6.96;67.63;97599.83;108889;1251;95548;-76
2023/05/13 01:25:41;;;;;;;19.30;12.40;;;;;;;6.97;67.75;97600.47;108911;1254;95927;-74
2023/05/13 01:28:09;;;;;;;17.90;13.20;;;;;;;6.97;67.74;97599.77;108648;1250;103549;-79
2023/05/13 01:30:38;;;;;;;22.00;13.30;;;;;;;7.01;67.84;97601.42;108868;1251;101314;-71
2023/05/13 01:33:06;;;;;;;22.40;14.90;;;;;;;7.05;67.96;97603.39;108861;1250;99680;-74
2023/05/13 01:35:35;;;;;;;20.80;14.20;;;;;;;7.07;67.90;97601.11;108857;1251;95582;-76
2023/05/13 01:38:04;;;;;;;20.80;14.60;;;;;;;7.10;67.92;97598.02;108661;1251;97124;-73
2023/05/13 01:40:34;;;;;;;21.40;14.90;;;;;;;7.14;68.01;97599.23;108630;1251;103693;-73
2023/05/13 01:43:02;;;;;;;24.50;14.90;;;;;;;7.17;67.98;97603.85;108839;1251;100995;-76
2023/05/13 01:45:31;;;;;;;21.50;16.20;;;;;;;7.20;68.00;97603.90;108832;1251;100049;-74
2023/05/13 01:47:59;;;;;;;23.10;16.30;;;;;;;7.22;68.08;97607.95;108864;1250;95563;-74
2023/05/13 01:50:27;;;;;;;23.90;17.80;;;;;;;7.25;68.18;97603.25;108910;1251;96585;-74
2023/05/13 01:52:56;;;;;;;25.40;17.30;;;;;;;7.28;68.09;97599.49;108873;1251;103633;-73
2023/05/13 01:55:24;;;;;;;28.60;19.40;;;;;;;7.31;68.08;97600.08;108842;1250;101249;-75
2023/05/13 01:57:52;;;;;;;26.00;19.40;;;;;;;7.33;68.13;97600.23;108862;1251;100091;-74
2023/05/13 02:00:20;;;;;;;25.00;17.50;;;;;;;7.34;68.19;97600.17;108550;1251;95644;-77
2023/05/13 02:02:48;;;;;;;24.40;17.30;;;;;;;7.36;68.30;97601.15;108880;1251;95965;-73
2023/05/13 02:05:16;;;;;;;22.00;16.10;;;;;;;7.39;68.24;97596.00;108873;1250;103362;-74
2023/05/13 02:07:45;;;;;;;23.70;16.90;;;;;;;7.42;68.26;97596.95;108910;1251;101422;-74
2023/05/13 02:10:13;;;;;;;22.30;16.80;;;;;;;7.43;68.49;97597.81;108855;1251;100017;-73
2023/05/13 02:12:41;;;;;;;22.40;17.30;;;;;;;7.46;68.63;97602.52;108526;1251;95644;-74
2023/05/13 02:15:09;;;;;;;22.80;15.20;;;;;;;7.49;68.84;97605.19;108665;1251;96505;-78
2023/05/13 02:17:37;;;;;;;17.60;14.10;;;;;;;7.49;69.00;97605.89;108863;1251;103234;-74
2023/05/13 02:20:06;;;;;;;18.40;13.40;;;;;;;7.45;68.96;97604.74;108886;1251;101536;-77
2023/05/13 02:22:34;;;;;;;21.50;14.30;;;;;;;7.47;68.83;97603.83;108657;1251;99116;-74
2023/05/13 02:25:04;;;;;;;22.30;15.10;;;;;;;7.50;68.71;97607.31;108896;1251;95568;-74
2023/05/13 02:27:32;;;;;;;21.50;15.40;;;;;;;7.54;68.55;97608.86;108874;1251;95968;-74
2023/05/13 02:30:00;;;;;;;18.10;13.40;;;;;;;7.57;68.29;97602.79;108758;1250;104064;-73
2023/05/13 02:32:28;;;;;;;18.40;13.60;;;;;;;7.59;68.20;97611.48;108757;1250;101376;-76
2023/05/13 02:34:56;;;;;;;17.30;13.40;;;;;;;7.60;68.07;97614.19;108847;1251;100108;-74
2023/05/13 02:37:25;;;;;;;19.60;14.60;;;;;;;7.63;67.97;97614.25;108867;1250;95747;-74
2023/05/13 02:39:53;;;;;;;18.20;14.30;;;;;;;7.64;67.96;97609.67;108879;1251;96544;-74
2023/05/13 02:42:21;;;;;;;22.80;15.10;;;;;;;7.64;67.92;97608.36;108852;1251;103273;-74
2023/05/13 02:44:49;;;;;;;24.70;15.60;;;;;;;7.66;67.83;97608.50;108875;1251;101491;-74
2023/05/13 02:47:17;;;;;;;20.40;14.30;;;;;;;7.65;67.95;97608.41;108848;1251;100168;-74
2023/05/13 02:49:45;;;;;;;20.30;15.60;;;;;;;7.61;67.91;97611.80;108876;1251;95774;-74
2023/05/13 02:52:13;;;;;;;19.50;15.50;;;;;;;7.58;67.95;97614.45;108860;1251;95996;-74
2023/05/13 02:54:41;;;;;;;24.90;17.00;;;;;;;7.57;68.03;97614.40;108854;1251;103658;-76
2023/05/13 02:57:09;;;;;;;20.50;15.50;;;;;;;7.55;68.11;97616.89;108902;1250;101410;-77
2023/05/13 02:59:37;;;;;;;23.80;15.60;;;;;;;7.56;68.15;97618.48;108825;1250;99923;-74
2023/05/13 03:02:06;;;;;;;18.70;15.10;;;;;;;7.57;68.12;97620.78;108832;1251;95574;-75
2023/05/13 03:04:34;;;;;;;20.30;15.90;;;;;;;7.59;68.26;97628.31;108876;1250;96038;-74
2023/05/13 03:07:02;;;;;;;23.10;15.00;;;;;;;7.59;68.33;97625.59;108883;1251;103671;-74
2023/05/13 03:09:30;;;;;;;19.70;15.30;;;;;;;7.60;68.29;97626.55;108867;1250;101450;-75
2023/05/13 03:11:58;;;;;;;20.80;15.10;;;;;;;7.61;68.51;97627.17;108844;1251;100343;-77
2023/05/13 03:14:26;;;;;;;21.80;15.30;;;;;;;7.61;68.60;97630.55;108803;1251;95568;-74
2023/05/13 03:16:55;;;;;;;21.90;15.60;;;;;;;7.62;68.57;97631.58;108920;1251;96017;-74
2023/05/13 03:19:24;;;;;;;20.50;14.90;;;;;;;7.62;68.72;97631.71;108877;1251;103699;-76
2023/05/13 03:21:52;;;;;;;20.00;15.70;;;;;;;7.63;68.81;97631.11;108823;1250;101831;-77
2023/05/13 03:24:20;;;;;;;22.00;15.70;;;;;;;7.64;68.84;97634.14;108686;1251;100060;-74
2023/05/13 03:26:49;;;;;;;19.00;14.60;;;;;;;7.67;68.80;97634.77;108882;1251;95568;-76
2023/05/13 03:29:17;;;;;;;24.60;16.10;;;;;;;7.69;68.83;97636.61;108920;1251;96016;-73
2023/05/13 03:31:46;;;;;;;20.40;15.30;;;;;;;7.69;68.87;97632.95;108794;1251;103740;-73
2023/05/13 03:34:14;;;;;;;22.70;15.80;;;;;;;7.71;68.83;97636.16;108810;1250;101269;-79
2023/05/13 03:36:42;;;;;;;21.00;15.20;;;;;;;7.72;68.77;97640.35;108576;1251;100177;-74
2023/05/13 03:39:10;;;;;;;21.60;15.70;;;;;;;7.71;68.91;97639.88;108835;1250;95605;-75
2023/05/13 03:41:38;;;;;;;23.90;14.90;;;;;;;7.73;68.91;97642.80;108922;1250;96025;-74
2023/05/13 03:44:06;;;;;;;23.40;15.70;;;;;;;7.75;69.00;97641.27;108872;1251;103548;-74
2023/05/13 03:46:34;;;;;;;22.70;16.40;;;;;;;7.76;68.93;97645.75;108937;1251;100052;-74
2023/05/13 03:49:03;;;;;;;21.60;16.20;;;;;;;7.79;68.97;97646.66;108845;1250;100110;-74
2023/05/13 03:51:33;;;;;;;21.60;15.30;;;;;;;7.81;68.92;97644.28;108876;1250;95760;-74
2023/05/13 03:54:01;;;;;;;24.20;16.50;;;;;;;7.81;68.94;97647.44;108886;1251;95976;-80
2023/05/13 03:56:29;;;;;;;23.60;16.40;;;;;;;7.82;68.99;97652.66;108867;1251;103506;-77
2023/05/13 03:58:57;;;;;;;21.60;16.30;;;;;;;7.85;69.05;97654.42;108875;1251;101602;-74
2023/05/13 04:01:25;;;;;;;21.40;16.30;;;;;;;7.89;68.95;97649.67;108855;1251;99991;-74
2023/05/13 04:03:53;;;;;;;21.60;16.50;;;;;;;7.92;69.23;97653.06;108869;1251;95620;-74
2023/05/13 04:06:21;;;;;;;23.40;16.70;;;;;;;7.95;69.36;97654.85;108862;1251;96059;-74
2023/05/13 04:08:51;;;;;;;19.50;15.60;;;;;;;7.98;69.40;97658.13;108912;1251;102974;-75
2023/05/13 04:11:19;;;;;;;23.10;16.70;;;;;;;8.00;69.34;97658.36;108873;1250;101467;-74
2023/05/13 04:13:47;;;;;;;22.30;16.90;;;;;;;8.03;69.23;97658.73;108830;1251;100076;-75
2023/05/13 04:16:16;;;;;;;33.80;21.00;;;;;;;8.05;69.41;97661.33;108847;1250;95786;-74
2023/05/13 04:18:44;;;;;;;32.70;21.20;;;;;;;8.07;69.25;97663.95;108926;1251;95965;-74
2023/05/13 04:21:12;;;;;;;26.10;19.30;;;;;;;8.10;69.23;97664.77;108932;1250;103703;-74
2023/05/13 04:23:40;;;;;;;31.30;19.70;;;;;;;8.15;69.23;97666.73;108590;1257;101640;-78
2023/05/13 04:26:08;;;;;;;36.50;24.60;;;;;;;8.19;69.17;97664.59;108839;1251;98579;-76
2023/05/13 04:28:36;;;;;;;30.10;22.80;;;;;;;8.23;69.21;97668.89;108817;1251;95602;-75
2023/05/13 04:31:05;;;;;;;22.90;16.30;;;;;;;8.27;69.23;97666.41;108918;1251;95970;-74
2023/05/13 04:33:33;;;;;;;24.40;16.20;;;;;;;8.33;68.98;97665.38;108829;1251;103748;-74
2023/05/13 04:36:01;;;;;;;24.30;15.20;;;;;;;8.40;68.87;97670.80;108824;1251;101349;-78
2023/05/13 04:38:29;;;;;;;21.40;15.30;;;;;;;8.48;68.80;97673.57;108894;1251;99942;-74
2023/05/13 04:40:57;;;;;;;22.90;15.00;;;;;;;8.55;68.65;97676.83;108808;1251;95509;-78
2023/05/13 04:43:25;;;;;;;23.00;14.10;;;;;;;8.61;68.58;97674.58;108913;1250;95997;-76
2023/05/13 04:45:53;;;;;;;48.00;30.80;;;;;;;8.68;68.55;97677.29;108883;1250;103634;-74
2023/05/13 04:48:21;;;;;;;110.30;65.90;;;;;;;8.75;68.51;97676.53;108822;1250;101227;-74
2023/05/13 04:50:51;;;;;;;96.10;59.30;;;;;;;8.82;68.67;97677.98;108813;1250;99499;-76
2023/05/13 04:53:19;;;;;;;58.20;37.40;;;;;;;8.88;68.68;97677.44;108877;1250;95761;-74
2023/05/13 04:55:51;;;;;;;34.70;23.30;;;;;;;8.93;68.68;97679.89;108884;1251;96005;-76
2023/05/13 04:58:19;;;;;;;27.60;18.50;;;;;;;8.97;68.63;97681.27;108830;1250;102656;-75
2023/05/13 05:00:47;;;;;;;24.00;16.50;;;;;;;9.00;68.42;97683.46;108873;1251;101488;-75
2023/05/13 05:03:15;;;;;;;29.40;19.00;;;;;;;9.05;68.25;97677.45;108638;1251;100272;-75
2023/05/13 05:05:43;;;;;;;31.90;21.70;;;;;;;9.12;68.38;97677.05;108864;1250;95756;-75
2023/05/13 05:08:11;;;;;;;23.30;16.60;;;;;;;9.19;68.35;97678.50;108909;1250;95894;-74
2023/05/13 05:10:39;;;;;;;25.20;15.30;;;;;;;9.26;68.25;97680.59;108592;1250;102591;-77
2023/05/13 05:13:07;;;;;;;23.50;15.40;;;;;;;9.36;67.95;97682.98;108882;1250;101533;-74
2023/05/13 05:15:35;;;;;;;24.70;15.00;;;;;;;9.45;67.90;97684.11;108886;1251;100084;-74
2023/05/13 05:18:05;;;;;;;19.60;15.10;;;;;;;9.54;67.91;97683.26;108818;1250;95625;-74
2023/05/13 05:20:33;;;;;;;22.30;14.50;;;;;;;9.61;67.94;97679.26;108831;1250;95996;-74
2023/05/13 05:23:01;;;;;;;16.60;13.60;;;;;;;9.72;67.94;97677.23;108583;1251;104699;-75
2023/05/13 05:25:29;;;;;;;17.60;12.60;;;;;;;9.83;67.63;97680.85;108896;1250;101489;-74
2023/05/13 05:27:57;;;;;;;17.30;8.80;;;;;;;9.93;67.27;97682.27;108864;1250;99680;-80
2023/05/13 05:30:25;;;;;;;14.70;9.40;;;;;;;10.04;67.03;97682.65;108842;1250;95768;-74
2023/05/13 05:32:54;;;;;;;9.60;7.50;;;;;;;10.17;66.66;97678.70;108863;1251;97106;-74
2023/05/13 05:35:22;;;;;;;10.60;7.40;;;;;;;10.27;66.28;97679.36;108913;1250;102718;-79
2023/05/13 05:37:50;;;;;;;10.80;7.20;;;;;;;10.35;65.95;97680.67;108904;1250;101406;-76
2023/05/13 05:40:18;;;;;;;13.40;7.30;;;;;;;10.44;65.64;97678.45;108849;1250;99854;-74
2023/05/13 05:42:47;;;;;;;9.20;7.50;;;;;;;10.53;65.48;97675.48;108454;1251;95592;-74
2023/05/13 05:45:15;;;;;;;10.00;8.00;;;;;;;10.62;65.27;97677.13;108891;1250;95983;-74
2023/05/13 05:47:43;;;;;;;10.90;7.10;;;;;;;10.72;65.10;97678.47;108896;1250;103591;-74
2023/05/13 05:50:11;;;;;;;10.30;6.80;;;;;;;10.79;64.72;97679.36;108608;1250;101549;-75
2023/05/13 05:52:39;;;;;;;8.40;6.50;;;;;;;10.86;64.37;97678.87;108607;1250;99505;-74
2023/05/13 05:55:08;;;;;;;9.60;6.20;;;;;;;10.93;64.04;97673.34;108775;1250;95858;-75
2023/05/13 05:57:36;;;;;;;10.90;7.20;;;;;;;11.01;64.05;97675.80;108835;1250;96563;-74
2023/05/13 06:00:05;;;;;;;7.50;6.20;;;;;;;11.12;63.79;97677.09;108807;1250;111322;-75
2023/05/13 06:02:33;;;;;;;9.10;6.40;;;;;;;11.23;63.52;97678.08;108531;1251;101046;-76
2023/05/13 06:05:01;;;;;;;10.40;7.10;;;;;;;11.33;63.25;97671.09;108632;1250;99948;-75
2023/05/13 06:07:29;;;;;;;10.40;7.70;;;;;;;11.44;63.17;97673.48;108891;1250;95557;-75
2023/05/13 06:09:58;;;;;;;11.00;7.80;;;;;;;11.55;63.25;97671.67;108923;1250;96075;-75
2023/05/13 06:12:26;;;;;;;11.70;7.00;;;;;;;11.64;63.01;97669.79;108580;1251;102647;-74
2023/05/13 06:14:54;;;;;;;12.20;5.70;;;;;;;11.75;62.62;97671.77;108483;1251;101155;-77
2023/05/13 06:17:22;;;;;;;12.90;5.80;;;;;;;11.85;62.20;97676.98;108823;1251;99724;-76
2023/05/13 06:19:50;;;;;;;7.30;4.60;;;;;;;11.97;62.08;97675.30;108800;1250;95572;-74
2023/05/13 06:22:19;;;;;;;6.30;4.40;;;;;;;12.11;61.49;97674.33;108808;1250;96044;-75
2023/05/13 06:24:47;;;;;;;8.90;4.10;;;;;;;12.20;60.48;97676.95;108571;1251;103713;-73
2023/05/13 06:27:15;;;;;;;5.30;3.60;;;;;;;12.31;59.88;97667.16;108978;1249;109989;-73
2023/05/13 06:29:43;;;;;;;7.10;3.00;;;;;;;12.40;59.19;97670.20;108844;1250;100074;-73
2023/05/13 06:32:11;;;;;;;8.30;3.00;;;;;;;12.49;58.85;97670.06;108813;1250;95604;-77
2023/05/13 06:34:41;;;;;;;4.20;2.70;;;;;;;12.59;58.53;97672.79;108856;1250;95974;-73
2023/05/13 06:37:09;;;;;;;6.20;3.30;;;;;;;12.72;58.13;97674.25;108816;1250;103246;-76
2023/05/13 06:39:38;;;;;;;5.40;3.20;;;;;;;12.84;57.59;97673.80;108758;1251;101268;-73
2023/05/13 06:42:06;;;;;;;2.90;2.50;;;;;;;12.96;57.26;97673.50;108752;1251;99437;-74
2023/05/13 06:44:34;;;;;;;8.00;2.80;;;;;;;13.07;56.90;97668.13;108542;1251;96907;-74
2023/05/13 06:47:03;;;;;;;8.50;3.20;;;;;;;13.18;56.65;97667.80;108818;1250;95821;-75
2023/05/13 06:49:34;;;;;;;4.90;3.00;;;;;;;13.30;56.51;97667.28;108849;1251;103658;-73
2023/05/13 06:52:02;;;;;;;3.10;2.50;;;;;;;13.43;56.53;97674.35;108868;1251;101280;-74
2023/05/13 06:54:30;;;;;;;3.10;2.50;;;;;;;13.52;55.53;97676.52;108780;1251;99295;-73
2023/05/13 06:56:59;;;;;;;3.60;2.80;;;;;;;13.59;55.11;97675.02;108804;1251;95824;-74
2023/05/13 06:59:27;;;;;;;3.50;2.70;;;;;;;13.68;54.72;97670.14;108778;1250;95653;-74
2023/05/13 07:01:55;;;;;;;3.60;2.40;;;;;;;13.74;54.29;97670.08;108813;1250;103712;-74
2023/05/13 07:04:23;;;;;;;4.30;2.70;;;;;;;13.81;54.04;97666.37;108873;1250;101292;-74
2023/05/13 07:06:53;;;;;;;4.70;3.00;;;;;;;13.89;54.18;97665.32;108515;1250;98903;-78
2023/05/13 07:09:21;;;;;;;6.00;2.80;;;;;;;13.98;53.42;97666.52;108854;1250;95821;-73
2023/05/13 07:11:49;;;;;;;4.50;3.20;;;;;;;14.04;52.66;97663.59;108946;1250;95967;-78
2023/05/13 07:14:18;;;;;;;6.30;2.90;;;;;;;14.09;52.45;97664.17;108980;1250;103689;-73
2023/05/13 07:16:46;;;;;;;5.60;3.00;;;;;;;14.16;52.45;97664.21;108975;1250;100519;-73
2023/05/13 07:19:14;;;;;;;3.50;2.90;;;;;;;14.26;52.61;97661.61;108974;1250;99593;-77
2023/05/13 07:21:42;;;;;;;4.00;3.10;;;;;;;14.34;52.22;97657.29;108862;1251;95617;-77
2023/05/13 07:24:11;;;;;;;4.60;3.20;;;;;;;14.44;51.94;97659.91;109005;1249;95972;-74
2023/05/13 07:26:39;;;;;;;4.60;2.40;;;;;;;14.55;51.63;97660.93;108924;1250;103619;-74
2023/05/13 07:29:07;;;;;;;3.80;3.00;;;;;;;14.64;50.58;97660.25;108962;1250;101387;-77
2023/05/13 07:31:35;;;;;;;6.90;2.90;;;;;;;14.71;50.24;97659.52;108887;1251;100226;-78
2023/05/13 07:34:04;;;;;;;4.50;3.00;;;;;;;14.89;50.55;97663.02;108880;1250;95698;-75
2023/05/13 07:36:33;;;;;;;6.40;2.90;;;;;;;15.18;50.73;97661.48;108874;1250;95774;-77
2023/05/13 07:39:01;;;;;;;4.20;2.70;;;;;;;15.55;50.29;97661.17;108907;1250;103621;-76
2023/05/13 07:41:29;;;;;;;4.70;2.70;;;;;;;15.98;50.23;97658.63;108796;1251;101497;-76
2023/05/13 07:43:57;;;;;;;10.20;2.50;;;;;;;16.38;48.91;97660.87;108560;1251;99939;-78
2023/05/13 07:46:25;;;;;;;6.70;2.60;;;;;;;16.79;48.27;97662.29;108771;1251;95556;-74
2023/05/13 07:48:53;;;;;;;4.00;2.70;;;;;;;17.23;47.41;97660.66;108796;1250;96389;-74
2023/05/13 07:51:22;;;;;;;4.30;2.70;;;;;;;17.61;47.03;97663.52;108776;1251;103626;-74
2023/05/13 07:53:50;;;;;;;4.10;2.40;;;;;;;17.98;46.50;97664.89;108877;1253;101504;-75
2023/05/13 07:56:18;;;;;;;3.40;2.60;;;;;;;18.29;45.94;97657.92;108770;1251;99933;-74
2023/05/13 07:58:46;;;;;;;4.20;2.60;;;;;;;18.52;45.85;97656.84;108765;1251;95772;-74
2023/05/13 08:01:14;;;;;;;3.20;2.90;;;;;;;18.63;45.19;97656.34;108816;1251;95702;-74
2023/05/13 08:03:42;;;;;;;2.80;2.20;;;;;;;18.73;44.56;97654.41;108821;1250;102281;-74
2023/05/13 08:06:11;;;;;;;3.20;2.70;;;;;;;18.73;43.65;97655.34;108838;1251;101249;-74
2023/05/13 08:08:39;;;;;;;4.40;2.60;;;;;;;18.78;43.76;97657.25;108810;1251;99879;-74
2023/05/13 08:11:07;;;;;;;4.40;2.70;;;;;;;18.95;43.67;97662.08;108768;1251;95541;-77
2023/05/13 08:13:35;;;;;;;3.30;2.30;;;;;;;19.25;43.46;97663.67;108896;1250;95911;-75
2023/05/13 08:16:05;;;;;;;3.70;2.40;;;;;;;19.53;43.08;97665.30;108677;1250;102595;-74
2023/05/13 08:18:33;;;;;;;4.70;2.70;;;;;;;19.64;42.41;97659.20;108671;1250;101022;-74
2023/05/13 08:21:02;;;;;;;4.00;2.60;;;;;;;19.62;41.72;97656.84;108920;1249;100050;-79
2023/05/13 08:23:30;;;;;;;6.60;2.20;;;;;;;19.59;41.95;97657.40;108949;1250;95585;-77
2023/05/13 08:25:58;;;;;;;2.60;2.40;;;;;;;19.55;41.13;97656.17;108920;1250;95781;-74
2023/05/13 08:28:28;;;;;;;6.10;2.50;;;;;;;19.49;40.85;97654.36;108994;1250;103457;-73
2023/05/13 08:31:01;;;;;;;3.40;2.30;;;;;;;19.49;40.77;97662.25;108896;1250;101265;-73
2023/05/13 08:33:30;;;;;;;4.80;2.60;;;;;;;19.41;40.55;97659.00;108742;1251;100064;-76
2023/05/13 08:36:01;;;;;;;4.80;2.00;;;;;;;19.30;40.23;97657.92;108904;1250;95522;-72
2023/05/13 08:38:29;;;;;;;4.30;2.40;;;;;;;19.12;40.01;97657.44;108800;1250;96177;-76
2023/05/13 08:40:57;;;;;;;3.10;2.10;;;;;;;19.01;40.26;97657.83;108627;1251;103257;-78
2023/05/13 08:43:29;;;;;;;7.30;1.80;;;;;;;18.95;40.23;97659.24;108923;1250;101321;-74
2023/05/13 08:46:01;;;;;;;3.20;1.90;;;;;;;18.87;39.91;97657.36;108773;1251;99802;-73
2023/05/13 08:48:32;;;;;;;4.80;2.10;;;;;;;18.77;40.22;97655.83;108743;1251;95574;-75
2023/05/13 08:51:01;;;;;;;4.90;2.00;;;;;;;18.66;40.15;97655.71;108761;1252;95938;-74
2023/05/13 08:53:30;;;;;;;2.90;1.80;;;;;;;18.59;40.37;97654.20;108710;1252;103711;-73
2023/05/13 08:55:59;;;;;;;2.90;1.70;;;;;;;18.54;40.17;97650.58;108536;1253;101340;-76
2023/05/13 08:58:27;;;;;;;2.50;1.80;;;;;;;18.43;39.69;97650.88;108714;1252;100566;-74
2023/05/13 09:00:56;;;;;;;2.60;1.90;;;;;;;18.36;39.91;97650.41;108522;1252;268095;-73
2023/05/13 09:03:28;;;;;;;3.60;2.10;;;;;;;18.27;40.17;97644.19;108714;1252;96007;-74
2023/05/13 09:05:56;;;;;;;5.90;2.00;;;;;;;18.21;40.07;97644.49;108797;1252;102598;-74
2023/05/13 09:08:24;;;;;;;3.60;2.30;;;;;;;18.10;39.68;97640.20;108769;1252;101588;-75
2023/05/13 09:10:53;;;;;;;5.10;2.20;;;;;;;18.03;40.42;97635.02;108697;1252;99857;-74
2023/05/13 09:13:21;;;;;;;5.10;2.60;;;;;;;18.05;40.86;97631.67;108755;1252;96023;-76
2023/05/13 09:15:50;;;;;;;3.30;2.60;;;;;;;18.13;40.92;97631.33;108683;1252;95868;-73
2023/05/13 09:18:19;;;;;;;3.80;2.50;;;;;;;18.25;40.75;97629.29;108312;1253;102383;-77
2023/05/13 09:20:47;;;;;;;5.80;2.70;;;;;;;18.44;41.01;97623.39;108770;1252;101320;-74
2023/05/13 09:23:16;;;;;;;2.70;2.20;;;;;;;18.78;40.72;97625.85;108753;1253;100066;-74
2023/05/13 09:25:44;;;;;;;5.20;2.40;;;;;;;19.17;40.05;97622.55;108744;1252;95576;-74
2023/05/13 09:28:15;;;;;;;2.80;2.10;;;;;;;19.50;39.64;97620.86;108802;1252;95609;-74
2023/05/13 09:30:44;;;;;;;7.20;2.30;;;;;;;19.82;39.26;97615.98;108789;1252;103498;-75
2023/05/13 09:33:14;;;;;;;5.10;2.30;;;;;;;20.32;39.14;97616.45;108525;1255;101115;-74
2023/05/13 09:35:48;;;;;;;18.40;9.50;;;;;;;20.67;38.78;97613.77;108725;1251;99748;-74
2023/05/13 09:38:26;;;;;;;11.70;5.50;;;;;;;20.72;38.14;97607.77;108731;1252;95567;-74
2023/05/13 09:40:56;;;;;;;3.50;3.00;;;;;;;20.54;37.80;97607.11;108773;1252;95747;-74
2023/05/13 09:43:26;;;;;;;4.00;3.00;;;;;;;20.34;37.82;97610.20;108776;1252;103455;-73
2023/05/13 09:45:56;;;;;;;3.60;3.00;;;;;;;20.21;37.87;97611.23;108799;1251;101312;-73
2023/05/13 09:48:30;;;;;;;7.60;3.50;;;;;;;20.08;38.16;97611.73;108701;1252;98672;-73
2023/05/13 09:50:58;;;;;;;4.00;2.40;;;;;;;20.12;38.44;97613.89;108822;1251;95851;-74
2023/05/13 09:53:27;;;;;;;4.90;2.70;;;;;;;20.20;38.67;97610.52;108857;1251;95727;-74
2023/05/13 09:55:58;;;;;;;6.90;2.10;;;;;;;20.36;38.78;97613.40;108823;1252;103206;-73
2023/05/13 09:58:29;;;;;;;4.80;2.50;;;;;;;20.53;37.88;97610.00;108838;1253;100261;-74
2023/05/13 10:00:58;;;;;;;4.00;2.30;;;;;;;20.58;37.59;97606.63;108660;1256;108418;-75
2023/05/13 10:03:28;;;;;;;3.70;2.10;;;;;;;20.80;37.85;97610.41;108749;1253;95559;-74
2023/05/13 10:05:58;;;;;;;3.80;2.30;;;;;;;21.19;37.92;97606.66;108829;1251;95618;-76
2023/05/13 10:08:28;;;;;;;2.40;1.80;;;;;;;21.50;37.04;97602.82;108829;1252;103573;-74
2023/05/13 10:10:56;;;;;;;3.50;2.20;;;;;;;21.63;36.39;97602.69;108498;1254;102714;-74
2023/05/13 10:13:25;;;;;;;4.20;2.40;;;;;;;21.47;35.98;97604.85;108774;1252;99532;-77
2023/05/13 10:15:55;;;;;;;4.80;2.50;;;;;;;21.42;36.10;97600.02;108762;1253;95768;-75
2023/05/13 10:18:24;;;;;;;6.80;2.80;;;;;;;21.62;36.49;97597.48;108555;1252;95991;-74
2023/05/13 10:20:52;;;;;;;4.20;3.00;;;;;;;21.80;36.00;97598.88;108812;1253;103052;-74
2023/05/13 10:23:22;;;;;;;3.30;2.80;;;;;;;21.78;35.94;97604.91;108818;1253;101834;-77
2023/05/13 10:25:51;;;;;;;2.90;2.40;;;;;;;21.78;36.07;97601.83;108726;1252;99474;-79
2023/05/13 10:28:20;;;;;;;3.70;2.30;;;;;;;22.07;36.50;97594.02;108636;1251;95981;-74
2023/05/13 10:30:51;;;;;;;3.20;2.50;;;;;;;22.33;36.08;97592.15;108885;1251;95717;-77
2023/05/13 10:33:19;;;;;;;6.40;2.40;;;;;;;22.25;35.38;97596.60;108885;1251;103721;-75
2023/05/13 10:36:20;;;;;;;5.20;2.30;;;;;;;22.02;34.75;97598.48;108763;1251;101292;-76
2023/05/13 10:39:07;;;;;;;2.70;2.20;;;;;;;21.69;35.03;97607.29;108209;1257;100302;-74
2023/05/13 10:42:01;;;;;;;5.30;2.00;;;;;;;21.37;34.55;97607.27;108271;1257;95607;-75
2023/05/13 10:44:29;;;;;;;4.30;2.90;;;;;;;21.09;34.81;97608.14;107922;1265;97036;-74
2023/05/13 10:46:58;;;;;;;4.30;2.50;;;;;;;20.79;34.76;97611.43;107813;1264;103102;-74
2023/05/13 10:49:33;;;;;;;5.60;2.60;;;;;;;20.52;34.82;97615.54;107740;1264;101351;-76
2023/05/13 10:52:09;;;;;;;5.50;2.70;;;;;;;20.30;34.88;97620.00;107727;1264;100076;-74
2023/05/13 10:55:01;;;;;;;3.70;2.40;;;;;;;20.11;35.18;97615.86;107843;1264;95696;-74
2023/05/13 10:57:37;;;;;;;3.80;2.60;;;;;;;19.95;35.90;97612.98;107694;1268;95850;-74
2023/05/13 11:00:19;;;;;;;4.00;2.50;;;;;;;19.89;36.21;97617.05;107740;1267;103629;-74
2023/05/13 11:02:51;;;;;;;5.60;2.70;;;;;;;19.73;36.17;97613.79;107655;1270;101368;-74
2023/05/13 11:05:20;;;;;;;2.90;2.50;;;;;;;19.55;36.35;97619.17;107499;1269;99922;-78
2023/05/13 11:07:56;;;;;;;5.00;2.70;;;;;;;19.47;36.75;97619.89;107641;1268;96000;-75
2023/05/13 11:10:29;;;;;;;3.30;2.70;;;;;;;19.41;36.87;97624.13;107680;1268;95989;-75
2023/05/13 11:13:29;;;;;;;3.60;2.90;;;;;;;19.31;37.09;97624.27;107369;1270;103726;-74
2023/05/13 11:15:58;;;;;;;6.40;3.10;;;;;;;19.19;37.27;97624.61;107701;1263;101398;-71
2023/05/13 11:18:35;;;;;;;4.10;2.70;;;;;;;19.11;37.40;97628.63;107916;1263;99359;-71
2023/05/13 11:21:05;;;;;;;4.20;2.20;;;;;;;19.04;37.45;97629.40;107804;1263;95865;-73
2023/05/13 11:23:50;;;;;;;5.20;3.40;;;;;;;18.92;37.53;97630.38;108455;1255;95907;-72
2023/05/13 11:26:20;;;;;;;5.40;2.70;;;;;;;18.86;37.74;97631.02;108394;1256;103137;-76
2023/05/13 11:29:05;;;;;;;5.60;2.90;;;;;;;18.85;37.92;97634.41;108397;1252;101439;-74